createdAt,value
2018-01-10T00:00:42.970Z,88.9
2018-01-10T00:01:45.372Z,88.9
2018-01-10T00:02:47.788Z,89.2
2018-01-10T00:03:50.489Z,89.2
2018-01-10T00:04:52.888Z,89.2
2018-01-10T00:05:55.294Z,89.4
2018-01-10T00:06:57.718Z,89.6
2018-01-10T00:08:00.115Z,89.5
2018-01-10T00:09:02.528Z,89.4
2018-01-10T00:10:05.715Z,89.4
2018-01-10T00:11:08.404Z,89.2
2018-01-10T00:12:10.814Z,89.3
2018-01-10T00:13:13.226Z,89.4
2018-01-10T00:14:15.635Z,89.4
2018-01-10T00:15:18.057Z,89.5
2018-01-10T00:16:20.471Z,89.4
2018-01-10T00:17:22.887Z,89.3
2018-01-10T00:18:25.307Z,89.2
2018-01-10T00:19:27.710Z,89.3
2018-01-10T00:20:30.122Z,89.1
2018-01-10T00:21:32.810Z,88.8
2018-01-10T00:22:35.220Z,88.7
2018-01-10T00:23:37.630Z,88.5
2018-01-10T00:24:40.039Z,88.4
2018-01-10T00:25:42.459Z,88.5
2018-01-10T00:26:45.152Z,88.5
2018-01-10T00:27:47.574Z,88.6
2018-01-10T00:28:50.094Z,88.3
2018-01-10T00:29:52.501Z,88.3
2018-01-10T00:30:54.904Z,88.2
2018-01-10T00:31:57.454Z,88.4
2018-01-10T00:33:00.147Z,88.5
2018-01-10T00:34:02.745Z,88.5
2018-01-10T00:35:05.150Z,88.6
2018-01-10T00:36:07.556Z,88.6
2018-01-10T00:37:10.251Z,88.4
2018-01-10T00:38:12.655Z,88.5
2018-01-10T00:39:15.049Z,88.3
2018-01-10T00:40:17.457Z,88.3
2018-01-10T00:41:19.879Z,88.3
2018-01-10T00:42:22.592Z,88.3
2018-01-10T00:43:25.008Z,88.3
2018-01-10T00:44:27.416Z,88.1
2018-01-10T00:45:30.112Z,88.2
2018-01-10T00:46:32.536Z,88.5
2018-01-10T00:47:34.939Z,88.6
2018-01-10T00:48:37.339Z,88.7
2018-01-10T00:49:39.749Z,88.6
2018-01-10T00:50:42.161Z,88.7
2018-01-10T00:51:44.563Z,88.7
2018-01-10T00:52:47.259Z,88.6
2018-01-10T00:53:49.676Z,88.5
2018-01-10T00:54:52.099Z,88.5
2018-01-10T00:55:54.500Z,88.5
2018-01-10T00:56:56.913Z,88.5
2018-01-10T00:57:59.617Z,88.6
2018-01-10T00:59:02.311Z,88.7
2018-01-10T01:00:04.716Z,88.9
2018-01-10T01:01:07.125Z,89
2018-01-10T01:02:09.743Z,88.8
2018-01-10T01:03:12.462Z,88.8
2018-01-10T01:04:14.872Z,89.1
2018-01-10T01:05:17.276Z,89.4
2018-01-10T01:06:19.968Z,89.5
2018-01-10T01:07:22.368Z,89.3
2018-01-10T01:08:24.778Z,89.2
2018-01-10T01:09:27.194Z,89.3
2018-01-10T01:10:29.605Z,89.1
2018-01-10T01:11:32.020Z,89.3
2018-01-10T01:12:34.445Z,89.4
2018-01-10T01:13:36.840Z,89.4
2018-01-10T01:14:39.266Z,89.5
2018-01-10T01:15:41.793Z,89.7
2018-01-10T01:16:44.195Z,89.7
2018-01-10T01:17:46.608Z,89.6
2018-01-10T01:18:49.050Z,89.5
2018-01-10T01:19:51.448Z,89.4
2018-01-10T01:20:54.465Z,89.3
2018-01-10T01:21:57.009Z,89.2
2018-01-10T01:22:59.425Z,89.3
2018-01-10T01:24:01.827Z,89.3
2018-01-10T01:25:04.231Z,89.3
2018-01-10T01:26:06.729Z,89.3
2018-01-10T01:27:09.137Z,89.4
2018-01-10T01:28:11.535Z,89.3
2018-01-10T01:29:13.955Z,89.4
2018-01-10T01:30:16.641Z,89.3
2018-01-10T01:31:19.046Z,89.4
2018-01-10T01:32:21.741Z,89.4
2018-01-10T01:33:24.725Z,89.2
2018-01-10T01:34:27.135Z,89.3
2018-01-10T01:35:29.556Z,89.4
2018-01-10T01:36:31.956Z,89.4
2018-01-10T01:37:34.370Z,89.3
2018-01-10T01:38:36.795Z,89
2018-01-10T01:39:39.217Z,89
2018-01-10T01:40:41.619Z,88.9
2018-01-10T01:41:44.034Z,88.9
2018-01-10T01:42:46.444Z,88.8
2018-01-10T01:43:48.858Z,88.8
2018-01-10T01:44:51.268Z,88.7
2018-01-10T01:45:53.842Z,88.6
2018-01-10T01:46:56.255Z,88.6
2018-01-10T01:47:58.673Z,88.8
2018-01-10T01:49:01.211Z,88.9
2018-01-10T01:50:03.621Z,89.1
2018-01-10T01:51:06.042Z,89.2
2018-01-10T01:52:08.459Z,89.2
2018-01-10T01:53:10.854Z,89
2018-01-10T01:54:13.262Z,88.9
2018-01-10T01:55:15.795Z,88.7
2018-01-10T01:56:18.481Z,88.6
2018-01-10T01:57:20.899Z,88.5
2018-01-10T01:58:23.639Z,88.6
2018-01-10T01:59:26.044Z,88.6
2018-01-10T02:00:28.464Z,88.8
2018-01-10T02:01:30.880Z,88.5
2018-01-10T02:02:33.291Z,88.5
2018-01-10T02:03:35.703Z,88.7
2018-01-10T02:04:38.120Z,88.7
2018-01-10T02:05:40.532Z,88.8
2018-01-10T02:06:42.953Z,88.9
2018-01-10T02:07:45.356Z,89.1
2018-01-10T02:08:47.772Z,89.3
2018-01-10T02:09:50.185Z,89.3
2018-01-10T02:10:53.157Z,89.3
2018-01-10T02:11:55.566Z,89.1
2018-01-10T02:12:57.987Z,89.1
2018-01-10T02:14:00.390Z,88.8
2018-01-10T02:15:02.801Z,88.7
2018-01-10T02:16:05.210Z,88.5
2018-01-10T02:17:07.623Z,88.3
2018-01-10T02:18:10.318Z,88.4
2018-01-10T02:19:12.742Z,88.6
2018-01-10T02:20:15.145Z,88.8
2018-01-10T02:21:17.563Z,88.8
2018-01-10T02:22:20.272Z,88.9
2018-01-10T02:23:22.683Z,89
2018-01-10T02:24:25.088Z,89.1
2018-01-10T02:25:27.876Z,89.1
2018-01-10T02:26:30.304Z,88.9
2018-01-10T02:27:32.731Z,88.8
2018-01-10T02:28:35.298Z,88.6
2018-01-10T02:29:37.713Z,88.4
2018-01-10T02:30:40.122Z,88.2
2018-01-10T02:31:42.539Z,88
2018-01-10T02:32:44.961Z,87.9
2018-01-10T02:33:47.360Z,87.9
2018-01-10T02:34:49.779Z,88
2018-01-10T02:35:52.471Z,87.9
2018-01-10T02:36:54.980Z,87.9
2018-01-10T02:37:57.669Z,87.7
2018-01-10T02:39:00.073Z,87.8
2018-01-10T02:40:02.583Z,87.9
2018-01-10T02:41:05.002Z,87.9
2018-01-10T02:42:07.407Z,87.9
2018-01-10T02:43:09.822Z,87.9
2018-01-10T02:44:12.245Z,88
2018-01-10T02:45:14.652Z,88
2018-01-10T02:46:17.064Z,88
2018-01-10T02:47:20.155Z,87.9
2018-01-10T02:48:22.565Z,87.9
2018-01-10T02:49:25.248Z,88
2018-01-10T02:50:27.658Z,88.2
2018-01-10T02:51:30.061Z,88.3
2018-01-10T02:52:32.501Z,88.4
2018-01-10T02:53:35.200Z,88.5
2018-01-10T02:54:37.610Z,88.5
2018-01-10T02:55:40.027Z,88.4
2018-01-10T02:56:42.454Z,88.5
2018-01-10T02:57:44.866Z,88.4
2018-01-10T02:58:47.311Z,88.2
2018-01-10T02:59:49.718Z,88.1
2018-01-10T03:00:52.583Z,88
2018-01-10T03:01:55.324Z,88
2018-01-10T03:02:58.088Z,88
2018-01-10T03:04:01.299Z,87.9
2018-01-10T03:05:03.921Z,88
2018-01-10T03:06:07.055Z,88
2018-01-10T03:07:09.631Z,88
2018-01-10T03:08:12.263Z,87.9
2018-01-10T03:09:14.823Z,87.6
2018-01-10T03:10:17.374Z,87.4
2018-01-10T03:11:19.930Z,87.3
2018-01-10T03:12:23.144Z,87
2018-01-10T03:13:25.696Z,87
2018-01-10T03:14:28.256Z,87
2018-01-10T03:15:30.906Z,87
2018-01-10T03:16:33.316Z,87
2018-01-10T03:17:35.832Z,86.9
2018-01-10T03:18:38.255Z,86.9
2018-01-10T03:19:40.672Z,86.9
2018-01-10T03:20:43.082Z,86.9
2018-01-10T03:21:45.505Z,86.9
2018-01-10T03:22:47.918Z,86.9
2018-01-10T03:23:50.316Z,86.9
2018-01-10T03:24:52.726Z,86.9
2018-01-10T03:25:55.261Z,87
2018-01-10T03:26:57.659Z,87
2018-01-10T03:28:00.240Z,87.2
2018-01-10T03:29:02.698Z,87.1
2018-01-10T03:30:05.153Z,87.2
2018-01-10T03:31:07.572Z,87.3
2018-01-10T03:32:10.279Z,87.3
2018-01-10T03:33:12.676Z,87.3
2018-01-10T03:34:15.096Z,87.2
2018-01-10T03:35:17.498Z,87.3
2018-01-10T03:36:20.183Z,87.4
2018-01-10T03:37:22.605Z,87.6
2018-01-10T03:38:25.304Z,87.5
2018-01-10T03:39:27.710Z,87.4
2018-01-10T03:40:30.125Z,87.5
2018-01-10T03:41:32.530Z,87.6
2018-01-10T03:42:34.940Z,87.5
2018-01-10T03:43:37.350Z,87.5
2018-01-10T03:44:39.749Z,87.5
2018-01-10T03:45:42.186Z,87.4
2018-01-10T03:46:44.750Z,87.4
2018-01-10T03:47:47.434Z,87.3
2018-01-10T03:48:49.968Z,87.3
2018-01-10T03:49:52.557Z,87.4
2018-01-10T03:50:55.003Z,87.5
2018-01-10T03:51:57.417Z,87.5
2018-01-10T03:53:00.105Z,87.4
2018-01-10T03:54:02.516Z,87.4
2018-01-10T03:55:05.210Z,87.5
2018-01-10T03:56:07.626Z,87.4
2018-01-10T03:57:10.305Z,87.6
2018-01-10T03:58:12.724Z,87.6
2018-01-10T03:59:15.139Z,87.6
2018-01-10T04:00:17.547Z,87.5
2018-01-10T04:01:19.962Z,87.7
2018-01-10T04:02:22.370Z,87.6
2018-01-10T04:03:24.781Z,87.8
2018-01-10T04:04:27.190Z,87.6
2018-01-10T04:05:29.611Z,87.5
2018-01-10T04:06:32.018Z,87.5
2018-01-10T04:07:34.438Z,87.6
2018-01-10T04:08:36.920Z,87.7
2018-01-10T04:09:39.322Z,87.8
2018-01-10T04:10:41.855Z,87.9
2018-01-10T04:11:44.666Z,88
2018-01-10T04:12:47.258Z,88.1
2018-01-10T04:13:49.717Z,88
2018-01-10T04:14:52.087Z,88.2
2018-01-10T04:15:54.488Z,88.2
2018-01-10T04:16:56.894Z,88.2
2018-01-10T04:17:59.314Z,88.4
2018-01-10T04:19:02.005Z,88.5
2018-01-10T04:20:04.416Z,88.6
2018-01-10T04:21:07.121Z,88.4
2018-01-10T04:22:09.517Z,88.4
2018-01-10T04:23:11.925Z,88.3
2018-01-10T04:24:14.621Z,88.5
2018-01-10T04:25:17.025Z,88.6
2018-01-10T04:26:19.439Z,88.6
2018-01-10T04:27:21.846Z,88.5
2018-01-10T04:28:24.533Z,88.4
2018-01-10T04:29:26.973Z,88.4
2018-01-10T04:30:29.545Z,88.3
2018-01-10T04:31:31.955Z,88.3
2018-01-10T04:32:34.426Z,88.5
2018-01-10T04:33:36.968Z,88.6
2018-01-10T04:34:39.365Z,88.5
2018-01-10T04:35:42.064Z,88.5
2018-01-10T04:36:44.465Z,88.5
2018-01-10T04:37:46.873Z,88.4
2018-01-10T04:38:49.276Z,88.2
2018-01-10T04:39:51.690Z,88.2
2018-01-10T04:40:54.092Z,88.2
2018-01-10T04:41:56.508Z,88.1
2018-01-10T04:42:58.920Z,88.1
2018-01-10T04:44:01.328Z,88.1
2018-01-10T04:45:03.738Z,88.1
2018-01-10T04:46:06.152Z,87.9
2018-01-10T04:47:08.558Z,88
2018-01-10T04:48:10.963Z,87.9
2018-01-10T04:49:13.382Z,88
2018-01-10T04:50:15.783Z,87.8
2018-01-10T04:51:18.209Z,87.9
2018-01-10T04:52:20.756Z,87.8
2018-01-10T04:53:23.166Z,88
2018-01-10T04:54:25.913Z,88.2
2018-01-10T04:55:28.404Z,88.2
2018-01-10T04:56:30.955Z,88.2
2018-01-10T04:57:33.365Z,87.9
2018-01-10T04:58:36.066Z,88.1
2018-01-10T04:59:38.469Z,88.2
2018-01-10T05:00:41.166Z,88.2
2018-01-10T05:01:43.574Z,88.1
2018-01-10T05:02:45.983Z,88.2
2018-01-10T05:03:48.682Z,88.4
2018-01-10T05:04:51.089Z,88.4
2018-01-10T05:05:53.484Z,88.6
2018-01-10T05:06:56.188Z,88.6
2018-01-10T05:07:58.607Z,88.5
2018-01-10T05:09:01.015Z,88.4
2018-01-10T05:10:03.428Z,88.4
2018-01-10T05:11:06.111Z,88.5
2018-01-10T05:12:08.537Z,88.4
2018-01-10T05:13:11.245Z,88.5
2018-01-10T05:14:13.922Z,88.5
2018-01-10T05:15:16.326Z,88.5
2018-01-10T05:16:18.789Z,88.4
2018-01-10T05:17:21.564Z,88.3
2018-01-10T05:18:24.630Z,88.3
2018-01-10T05:19:27.265Z,88.5
2018-01-10T05:20:30.441Z,88.3
2018-01-10T05:21:34.463Z,88.3
2018-01-10T05:22:36.933Z,88.5
2018-01-10T05:23:39.462Z,88.3
2018-01-10T05:24:41.865Z,88.4
2018-01-10T05:25:44.680Z,88.5
2018-01-10T05:26:47.272Z,88.5
2018-01-10T05:27:49.860Z,88.4
2018-01-10T05:28:52.297Z,88.3
2018-01-10T05:29:54.700Z,88.3
2018-01-10T05:30:57.111Z,88.3
2018-01-10T05:31:59.520Z,88.4
2018-01-10T05:33:01.923Z,88.5
2018-01-10T05:34:05.047Z,88.5
2018-01-10T05:35:07.502Z,88.5
2018-01-10T05:36:10.139Z,88.4
2018-01-10T05:37:12.554Z,88.3
2018-01-10T05:38:14.969Z,88.4
2018-01-10T05:39:17.400Z,88.6
2018-01-10T05:40:19.791Z,88.7
2018-01-10T05:41:22.189Z,88.6
2018-01-10T05:42:24.598Z,88.7
2018-01-10T05:43:27.112Z,88.8
2018-01-10T05:44:29.596Z,88.8
2018-01-10T05:45:32.003Z,88.6
2018-01-10T05:46:34.417Z,88.7
2018-01-10T05:47:36.826Z,88.7
2018-01-10T05:48:39.511Z,88.8
2018-01-10T05:49:42.219Z,88.8
2018-01-10T05:50:44.623Z,88.8
2018-01-10T05:51:47.028Z,88.7
2018-01-10T05:52:49.435Z,88.4
2018-01-10T05:53:51.875Z,88.5
2018-01-10T05:54:54.271Z,88.6
2018-01-10T05:55:56.798Z,88.8
2018-01-10T05:56:59.201Z,88.8
2018-01-10T05:58:01.945Z,88.9
2018-01-10T05:59:04.657Z,88.9
2018-01-10T06:00:07.064Z,89.1
2018-01-10T06:01:09.478Z,89.3
2018-01-10T06:02:11.898Z,89.2
2018-01-10T06:03:14.673Z,89
2018-01-10T06:04:17.502Z,88.9
2018-01-10T06:05:19.997Z,88.8
2018-01-10T06:06:22.572Z,88.8
2018-01-10T06:07:25.583Z,88.8
2018-01-10T06:08:28.006Z,88.8
2018-01-10T06:09:30.425Z,88.8
2018-01-10T06:10:32.865Z,88.7
2018-01-10T06:11:35.565Z,88.6
2018-01-10T06:12:38.244Z,88.5
2018-01-10T06:13:40.667Z,88.7
2018-01-10T06:14:43.094Z,88.8
2018-01-10T06:15:45.555Z,88.8
2018-01-10T06:16:47.936Z,88.9
2018-01-10T06:17:50.634Z,88.9
2018-01-10T06:18:53.053Z,89
2018-01-10T06:19:55.765Z,89.1
2018-01-10T06:20:58.201Z,89.1
2018-01-10T06:22:00.620Z,89.1
2018-01-10T06:23:03.153Z,88.7
2018-01-10T06:24:05.675Z,88.7
2018-01-10T06:25:08.090Z,88.7
2018-01-10T06:26:10.649Z,88.7
2018-01-10T06:27:13.171Z,88.8
2018-01-10T06:28:15.600Z,88.9
2018-01-10T06:29:18.001Z,88.8
2018-01-10T06:30:20.690Z,88.6
2018-01-10T06:31:23.114Z,88.6
2018-01-10T06:32:25.517Z,88.6
2018-01-10T06:33:27.934Z,88.6
2018-01-10T06:34:30.338Z,88.7
2018-01-10T06:35:32.748Z,88.8
2018-01-10T06:36:35.167Z,88.8
2018-01-10T06:37:37.567Z,88.9
2018-01-10T06:38:39.983Z,89
2018-01-10T06:39:42.402Z,88.9
2018-01-10T06:40:44.802Z,88.9
2018-01-10T06:41:47.515Z,89
2018-01-10T06:42:49.922Z,89.1
2018-01-10T06:43:52.384Z,88.8
2018-01-10T06:44:55.255Z,88.8
2018-01-10T06:45:57.668Z,88.6
2018-01-10T06:47:00.200Z,88.4
2018-01-10T06:48:02.993Z,88.2
2018-01-10T06:49:05.463Z,88.2
2018-01-10T06:50:07.865Z,88
2018-01-10T06:51:10.279Z,87.9
2018-01-10T06:52:12.679Z,88
2018-01-10T06:53:15.102Z,88.1
2018-01-10T06:54:17.501Z,88.2
2018-01-10T06:55:19.912Z,88.2
2018-01-10T06:56:22.655Z,88.2
2018-01-10T06:57:25.066Z,88.2
2018-01-10T06:58:27.476Z,88.3
2018-01-10T06:59:30.177Z,88.5
2018-01-10T07:00:32.577Z,88.5
2018-01-10T07:01:35.000Z,88.3
2018-01-10T07:02:37.406Z,88.3
2018-01-10T07:03:39.811Z,88.4
2018-01-10T07:04:42.234Z,88.4
2018-01-10T07:05:44.725Z,88.4
2018-01-10T07:06:47.250Z,88.3
2018-01-10T07:07:49.685Z,88.3
2018-01-10T07:08:52.142Z,88.2
2018-01-10T07:09:54.610Z,88.3
2018-01-10T07:10:57.174Z,88.2
2018-01-10T07:11:59.566Z,88.3
2018-01-10T07:13:01.988Z,88.4
2018-01-10T07:14:04.398Z,88.6
2018-01-10T07:15:07.094Z,88.8
2018-01-10T07:16:09.512Z,89
2018-01-10T07:17:11.929Z,88.8
2018-01-10T07:18:14.908Z,88.4
2018-01-10T07:19:17.300Z,88.1
2018-01-10T07:20:19.714Z,87.9
2018-01-10T07:21:22.122Z,88
2018-01-10T07:22:24.835Z,88
2018-01-10T07:23:27.252Z,87.9
2018-01-10T07:24:29.660Z,87.8
2018-01-10T07:25:32.069Z,87.9
2018-01-10T07:26:34.516Z,87.8
2018-01-10T07:27:36.925Z,87.8
2018-01-10T07:28:39.458Z,87.8
2018-01-10T07:29:41.947Z,87.9
2018-01-10T07:30:44.384Z,87.9
2018-01-10T07:31:46.801Z,88
2018-01-10T07:32:49.497Z,87.9
2018-01-10T07:33:51.896Z,87.9
2018-01-10T07:34:54.307Z,87.7
2018-01-10T07:35:57.008Z,87.7
2018-01-10T07:36:59.696Z,87.7
2018-01-10T07:38:02.102Z,87.6
2018-01-10T07:39:04.510Z,87.6
2018-01-10T07:40:06.917Z,87.5
2018-01-10T07:41:09.340Z,87.5
2018-01-10T07:42:11.753Z,87.7
2018-01-10T07:43:14.147Z,87.6
2018-01-10T07:44:16.846Z,87.7
2018-01-10T07:45:19.542Z,87.9
2018-01-10T07:46:21.961Z,88
2018-01-10T07:47:24.368Z,88.2
2018-01-10T07:48:26.853Z,88.2
2018-01-10T07:49:29.262Z,88.4
2018-01-10T07:50:31.718Z,88.5
2018-01-10T07:51:34.541Z,88.6
2018-01-10T07:52:37.072Z,88.7
2018-01-10T07:53:39.466Z,88.7
2018-01-10T07:54:41.889Z,88.8
2018-01-10T07:55:44.580Z,88.8
2018-01-10T07:56:46.982Z,88.8
2018-01-10T07:57:49.392Z,88.9
2018-01-10T07:58:51.799Z,89
2018-01-10T07:59:54.486Z,89.2
2018-01-10T08:00:56.953Z,89
2018-01-10T08:01:59.684Z,89.2
2018-01-10T08:03:02.460Z,89.4
2018-01-10T08:04:05.524Z,89.4
2018-01-10T08:05:08.631Z,89.5
2018-01-10T08:06:11.151Z,89.6
2018-01-10T08:07:13.935Z,89.4
2018-01-10T08:08:16.437Z,89.3
2018-01-10T08:09:18.860Z,89.2
2018-01-10T08:10:21.267Z,89
2018-01-10T08:11:23.681Z,89
2018-01-10T08:12:26.084Z,89.1
2018-01-10T08:13:28.500Z,89.1
2018-01-10T08:14:31.181Z,89
2018-01-10T08:15:33.589Z,88.9
2018-01-10T08:16:36.280Z,88.8
2018-01-10T08:17:39.260Z,88.9
2018-01-10T08:18:41.661Z,89.1
2018-01-10T08:19:44.064Z,89.1
2018-01-10T08:20:46.478Z,89.2
2018-01-10T08:21:48.890Z,89.1
2018-01-10T08:22:51.302Z,89.1
2018-01-10T08:23:53.709Z,89.3
2018-01-10T08:24:56.118Z,89.2
2018-01-10T08:25:58.582Z,89.2
2018-01-10T08:27:01.030Z,89
2018-01-10T08:28:03.550Z,89.1
2018-01-10T08:29:06.021Z,89.1
2018-01-10T08:30:08.560Z,89
2018-01-10T08:31:10.975Z,88.8
2018-01-10T08:32:13.373Z,88.6
2018-01-10T08:33:15.785Z,88.6
2018-01-10T08:34:18.190Z,88.8
2018-01-10T08:35:20.596Z,88.9
2018-01-10T08:36:23.011Z,89.1
2018-01-10T08:37:25.419Z,89.3
2018-01-10T08:38:28.111Z,89.4
2018-01-10T08:39:30.809Z,89.6
2018-01-10T08:40:33.224Z,89.5
2018-01-10T08:41:35.639Z,89.5
2018-01-10T08:42:38.038Z,89.4
2018-01-10T08:43:40.444Z,89.4
2018-01-10T08:44:42.847Z,89.6
2018-01-10T08:45:45.544Z,89.5
2018-01-10T08:46:48.263Z,89.4
2018-01-10T08:47:50.677Z,89.4
2018-01-10T08:48:53.367Z,89.3
2018-01-10T08:49:55.772Z,89.4
2018-01-10T08:50:58.180Z,89.3
2018-01-10T08:52:00.602Z,89.4
2018-01-10T08:53:03.287Z,89.4
2018-01-10T08:54:05.695Z,89.4
2018-01-10T08:55:08.412Z,89.5
2018-01-10T08:56:10.830Z,89.5
2018-01-10T08:57:13.532Z,89.6
2018-01-10T08:58:16.277Z,89.3
2018-01-10T08:59:18.683Z,89.4
2018-01-10T09:00:21.091Z,89.4
2018-01-10T09:01:23.493Z,89.4
2018-01-10T09:02:25.916Z,89.4
2018-01-10T09:03:28.327Z,89.4
2018-01-10T09:04:31.008Z,89.6
2018-01-10T09:05:33.425Z,89.7
2018-01-10T09:06:36.134Z,89.8
2018-01-10T09:07:38.535Z,90
2018-01-10T09:08:40.950Z,90.1
2018-01-10T09:09:43.349Z,90.3
2018-01-10T09:10:45.764Z,90.6
2018-01-10T09:11:48.487Z,90.9
2018-01-10T09:12:50.896Z,91.3
2018-01-10T09:13:53.302Z,91.5
2018-01-10T09:14:55.726Z,91.8
2018-01-10T09:15:58.440Z,92.1
2018-01-10T09:17:00.850Z,92.1
2018-01-10T09:18:03.272Z,92.2
2018-01-10T09:19:05.686Z,92.1
2018-01-10T09:20:08.379Z,92.1
2018-01-10T09:21:11.085Z,92.1
2018-01-10T09:22:13.491Z,92
2018-01-10T09:23:15.908Z,91.8
2018-01-10T09:24:18.322Z,91.6
2018-01-10T09:25:20.719Z,91.5
2018-01-10T09:26:23.141Z,91.4
2018-01-10T09:27:25.553Z,91.1
2018-01-10T09:28:27.957Z,90.9
2018-01-10T09:29:30.377Z,90.8
2018-01-10T09:30:33.065Z,90.5
2018-01-10T09:31:35.759Z,90.6
2018-01-10T09:32:38.182Z,90.5
2018-01-10T09:33:40.876Z,90.5
2018-01-10T09:34:43.861Z,90.5
2018-01-10T09:35:46.277Z,90.4
2018-01-10T09:36:48.684Z,90.2
2018-01-10T09:37:51.098Z,90
2018-01-10T09:38:53.787Z,90
2018-01-10T09:39:56.187Z,90
2018-01-10T09:40:58.609Z,89.9
2018-01-10T09:42:01.020Z,90
2018-01-10T09:43:03.717Z,90
2018-01-10T09:44:06.713Z,90
2018-01-10T09:45:09.129Z,90
2018-01-10T09:46:11.808Z,90
2018-01-10T09:47:14.211Z,90
2018-01-10T09:48:16.900Z,90.1
2018-01-10T09:49:19.317Z,90.1
2018-01-10T09:50:22.032Z,90.3
2018-01-10T09:51:24.442Z,90.3
2018-01-10T09:52:26.857Z,90.4
2018-01-10T09:53:29.273Z,90.4
2018-01-10T09:54:31.989Z,90.3
2018-01-10T09:55:34.402Z,90.3
2018-01-10T09:56:36.808Z,90.2
2018-01-10T09:57:39.220Z,90.2
2018-01-10T09:58:41.633Z,90.2
2018-01-10T09:59:44.048Z,90.2
2018-01-10T10:00:46.457Z,90.1
2018-01-10T10:01:49.051Z,90.1
2018-01-10T10:02:51.461Z,90
2018-01-10T10:03:53.881Z,90
2018-01-10T10:04:56.282Z,90
2018-01-10T10:05:58.703Z,90
2018-01-10T10:07:01.132Z,90.1
2018-01-10T10:08:04.488Z,90.2
2018-01-10T10:09:08.975Z,90.2
2018-01-10T10:10:11.924Z,90.2
2018-01-10T10:11:14.748Z,90.2
2018-01-10T10:12:17.938Z,90.1
2018-01-10T10:13:20.719Z,90
2018-01-10T10:14:24.270Z,90
2018-01-10T10:15:27.308Z,90
2018-01-10T10:16:31.050Z,90
2018-01-10T10:17:34.241Z,90.1
2018-01-10T10:18:36.912Z,90.1
2018-01-10T10:19:39.372Z,90.2
2018-01-10T10:20:41.790Z,90.2
2018-01-10T10:21:44.199Z,90.4
2018-01-10T10:22:46.614Z,90.5
2018-01-10T10:23:49.311Z,90.6
2018-01-10T10:24:51.712Z,90.7
2018-01-10T10:25:54.119Z,90.4
2018-01-10T10:26:56.523Z,90.4
2018-01-10T10:27:58.937Z,90.7
2018-01-10T10:29:01.358Z,90.8
2018-01-10T10:30:03.767Z,91.2
2018-01-10T10:31:06.175Z,91.7
2018-01-10T10:32:08.598Z,92.1
2018-01-10T10:33:11.282Z,92.3
2018-01-10T10:34:13.699Z,92.5
2018-01-10T10:35:16.114Z,93
2018-01-10T10:36:18.798Z,93.6
2018-01-10T10:37:21.212Z,93.9
2018-01-10T10:38:23.637Z,93.8
2018-01-10T10:39:26.040Z,93.7
2018-01-10T10:40:28.454Z,93.8
2018-01-10T10:41:30.873Z,93.4
2018-01-10T10:42:33.281Z,93.5
2018-01-10T10:43:35.697Z,93.3
2018-01-10T10:44:38.118Z,92.9
2018-01-10T10:45:40.527Z,92.7
2018-01-10T10:46:43.228Z,93.1
2018-01-10T10:47:45.642Z,93.1
2018-01-10T10:48:48.069Z,93.3
2018-01-10T10:49:50.484Z,93.6
2018-01-10T10:50:53.189Z,93.5
2018-01-10T10:51:55.897Z,93.5
2018-01-10T10:52:58.312Z,93.6
2018-01-10T10:54:01.016Z,94
2018-01-10T10:55:03.430Z,94.5
2018-01-10T10:56:05.831Z,95.1
2018-01-10T10:57:08.816Z,95.8
2018-01-10T10:58:11.248Z,96.3
2018-01-10T10:59:13.666Z,96.7
2018-01-10T11:00:16.075Z,96.9
2018-01-10T11:01:18.492Z,97.2
2018-01-10T11:02:21.180Z,97.3
2018-01-10T11:03:23.613Z,97.3
2018-01-10T11:04:26.028Z,97.2
2018-01-10T11:05:28.439Z,96.9
2018-01-10T11:06:30.867Z,96.9
2018-01-10T11:07:33.291Z,96.8
2018-01-10T11:08:35.710Z,96.5
2018-01-10T11:09:38.428Z,96.1
2018-01-10T11:10:40.833Z,95.3
2018-01-10T11:11:43.251Z,94.9
2018-01-10T11:12:45.972Z,94.8
2018-01-10T11:13:48.385Z,94.3
2018-01-10T11:14:50.798Z,93.8
2018-01-10T11:15:53.216Z,93.6
2018-01-10T11:16:55.640Z,93.5
2018-01-10T11:17:58.059Z,93.3
2018-01-10T11:19:00.775Z,93.3
2018-01-10T11:20:03.181Z,93.2
2018-01-10T11:21:05.605Z,92.9
2018-01-10T11:22:08.301Z,93
2018-01-10T11:23:10.712Z,93.3
2018-01-10T11:24:13.128Z,93.8
2018-01-10T11:25:15.830Z,94
2018-01-10T11:26:18.244Z,94.1
2018-01-10T11:27:20.964Z,93.7
2018-01-10T11:28:23.681Z,92.6
2018-01-10T11:29:26.104Z,92.5
2018-01-10T11:30:28.831Z,92.3
2018-01-10T11:31:31.526Z,92.8
2018-01-10T11:32:33.949Z,92.9
2018-01-10T11:33:36.378Z,92.7
2018-01-10T11:34:38.794Z,93
2018-01-10T11:35:41.218Z,93.3
2018-01-10T11:36:43.948Z,92.8
2018-01-10T11:37:46.329Z,92.3
2018-01-10T11:38:49.337Z,92.1
2018-01-10T11:39:52.036Z,91.8
2018-01-10T11:40:54.465Z,91.9
2018-01-10T11:41:56.882Z,91.8
2018-01-10T11:42:59.309Z,91.6
2018-01-10T11:44:01.717Z,91.5
2018-01-10T11:45:04.134Z,91.5
2018-01-10T11:46:06.566Z,91.7
2018-01-10T11:47:08.985Z,92.3
2018-01-10T11:48:11.693Z,92.4
2018-01-10T11:49:14.107Z,92.2
2018-01-10T11:50:16.520Z,92.4
2018-01-10T11:51:18.948Z,92.6
2018-01-10T11:52:21.361Z,92.8
2018-01-10T11:53:23.775Z,93.1
2018-01-10T11:54:26.200Z,93.2
2018-01-10T11:55:28.621Z,93
2018-01-10T11:56:31.044Z,92.8
2018-01-10T11:57:33.467Z,92.4
2018-01-10T11:58:36.169Z,92.4
2018-01-10T11:59:38.598Z,92.6
2018-01-10T12:00:41.023Z,92.4
2018-01-10T12:01:43.461Z,92.1
2018-01-10T12:02:45.874Z,92.3
2018-01-10T12:03:48.305Z,92.4
2018-01-10T12:04:50.732Z,92.4
2018-01-10T12:05:53.147Z,92.3
2018-01-10T12:06:55.567Z,92.1
2018-01-10T12:07:57.988Z,91.8
2018-01-10T12:09:00.706Z,91.8
2018-01-10T12:10:03.134Z,92
2018-01-10T12:11:05.558Z,92.1
2018-01-10T12:12:07.976Z,92
2018-01-10T12:13:10.402Z,92.1
2018-01-10T12:14:12.825Z,92.1
2018-01-10T12:15:15.236Z,91.7
2018-01-10T12:16:17.666Z,91.2
2018-01-10T12:17:20.105Z,90.8
2018-01-10T12:18:22.525Z,90.5
2018-01-10T12:19:24.938Z,90.4
2018-01-10T12:20:27.361Z,90.5
2018-01-10T12:21:29.776Z,90.6
2018-01-10T12:22:32.212Z,90.9
2018-01-10T12:23:34.923Z,91
2018-01-10T12:24:37.344Z,91.2
2018-01-10T12:25:39.770Z,91.1
2018-01-10T12:26:42.205Z,91.1
2018-01-10T12:27:44.630Z,91.2
2018-01-10T12:28:47.048Z,91.2
2018-01-10T12:29:49.758Z,91.1
2018-01-10T12:30:52.465Z,91
2018-01-10T12:31:54.889Z,90.8
2018-01-10T12:32:57.583Z,90.8
2018-01-10T12:33:59.998Z,90.4
2018-01-10T12:35:02.425Z,90.3
2018-01-10T12:36:05.131Z,90.1
2018-01-10T12:37:07.552Z,90
2018-01-10T12:38:09.984Z,90.1
2018-01-10T12:39:12.405Z,90.2
2018-01-10T12:40:14.839Z,90.2
2018-01-10T12:41:17.825Z,90
2018-01-10T12:42:20.543Z,89
2018-01-10T12:43:22.950Z,88.2
2018-01-10T12:44:25.391Z,86.5
2018-01-10T12:45:27.798Z,85.4
2018-01-10T12:46:30.505Z,84.7
2018-01-10T12:47:33.227Z,84.3
2018-01-10T12:48:35.656Z,84.6
2018-01-10T12:49:38.070Z,84.6
2018-01-10T12:50:40.505Z,84.4
2018-01-10T12:51:43.209Z,84.4
2018-01-10T12:52:45.634Z,84.3
2018-01-10T12:53:48.053Z,83.7
2018-01-10T12:54:51.047Z,83.4
2018-01-10T12:55:53.464Z,83.6
2018-01-10T12:56:55.883Z,83.9
2018-01-10T12:57:58.593Z,84.2
2018-01-10T12:59:01.012Z,85.1
2018-01-10T13:00:03.448Z,84.9
2018-01-10T13:01:05.877Z,85
2018-01-10T13:02:08.348Z,84.6
2018-01-10T13:03:10.774Z,84.9
2018-01-10T13:04:13.199Z,85.2
2018-01-10T13:05:15.634Z,85.5
2018-01-10T13:06:18.052Z,85.2
2018-01-10T13:07:20.497Z,84.7
2018-01-10T13:08:22.917Z,84.9
2018-01-10T13:09:25.349Z,85.2
2018-01-10T13:10:27.766Z,85.3
2018-01-10T13:11:30.246Z,85.3
2018-01-10T13:12:32.649Z,85.3
2018-01-10T13:13:35.118Z,85.9
2018-01-10T13:14:37.540Z,85.7
2018-01-10T13:15:39.958Z,85.7
2018-01-10T13:16:42.434Z,85.8
2018-01-10T13:17:45.118Z,86.3
2018-01-10T13:18:47.537Z,86.4
2018-01-10T13:19:50.287Z,86.1
2018-01-10T13:20:53.285Z,86.4
2018-01-10T13:21:55.705Z,85.7
2018-01-10T13:22:58.140Z,85.5
2018-01-10T13:24:00.551Z,85.8
2018-01-10T13:25:02.972Z,85.7
2018-01-10T13:26:05.396Z,86.1
2018-01-10T13:27:07.801Z,86.2
2018-01-10T13:28:10.537Z,86.6
2018-01-10T13:29:12.997Z,86.8
2018-01-10T13:30:15.419Z,86.8
2018-01-10T13:31:17.839Z,86.4
2018-01-10T13:32:20.259Z,86.4
2018-01-10T13:33:22.673Z,85.9
2018-01-10T13:34:25.386Z,86
2018-01-10T13:35:27.791Z,85.7
2018-01-10T13:36:30.209Z,85.2
2018-01-10T13:37:32.677Z,85.7
2018-01-10T13:38:35.343Z,86
2018-01-10T13:39:37.763Z,86.2
2018-01-10T13:40:40.769Z,86.4
2018-01-10T13:41:43.230Z,86
2018-01-10T13:42:45.701Z,85.7
2018-01-10T13:43:48.113Z,85
2018-01-10T13:44:50.659Z,85.2
2018-01-10T13:45:53.388Z,85
2018-01-10T13:46:55.801Z,85.2
2018-01-10T13:47:58.226Z,85.6
2018-01-10T13:49:00.665Z,85.3
2018-01-10T13:50:03.084Z,85
2018-01-10T13:51:09.771Z,84.6
2018-01-10T13:52:27.559Z,84.8
2018-01-10T13:53:41.795Z,84.7
2018-01-10T13:54:47.094Z,84.9
2018-01-10T13:55:51.745Z,85.1
2018-01-10T13:56:54.317Z,85.4
2018-01-10T13:57:56.735Z,85.4
2018-01-10T13:58:59.146Z,85.6